createdAt,value
2019-03-17T00:00:33.274Z,6.42
2019-03-17T00:03:02.880Z,6.39
2019-03-17T00:05:32.484Z,6.32
2019-03-17T00:08:02.159Z,6.30
2019-03-17T00:10:32.622Z,6.26
2019-03-17T00:13:02.207Z,6.24
2019-03-17T00:15:33.598Z,6.23
2019-03-17T00:18:03.210Z,6.24
2019-03-17T00:20:33.390Z,6.22
2019-03-17T00:23:03.235Z,6.20
2019-03-17T00:25:32.848Z,6.17
2019-03-17T00:28:02.457Z,6.13
2019-03-17T00:30:33.277Z,6.14
2019-03-17T00:33:03.867Z,6.14
2019-03-17T00:35:33.500Z,6.13
2019-03-17T00:38:04.247Z,6.11
2019-03-17T00:40:34.134Z,6.11
2019-03-17T00:43:04.599Z,6.08
2019-03-17T00:45:34.235Z,6.08
2019-03-17T00:48:04.129Z,6.09
2019-03-17T00:50:33.723Z,6.10
2019-03-17T00:53:03.418Z,6.12
2019-03-17T00:55:32.969Z,6.13
2019-03-17T00:58:02.589Z,6.12
2019-03-17T01:00:32.900Z,6.11
2019-03-17T01:03:02.783Z,6.08
2019-03-17T01:05:32.396Z,6.08
2019-03-17T01:08:02.046Z,6.12
2019-03-17T01:10:31.648Z,6.15
2019-03-17T01:13:02.254Z,6.15
2019-03-17T01:15:32.128Z,6.19
2019-03-17T01:18:01.750Z,6.24
2019-03-17T01:20:31.426Z,6.26
2019-03-17T01:23:01.625Z,6.26
2019-03-17T01:25:31.404Z,6.21
2019-03-17T01:28:01.169Z,6.20
2019-03-17T01:30:30.858Z,6.20
2019-03-17T01:33:00.479Z,6.21
2019-03-17T01:35:32.636Z,6.17
2019-03-17T01:38:02.139Z,6.18
2019-03-17T01:40:32.223Z,6.16
2019-03-17T01:43:01.861Z,6.18
2019-03-17T01:45:31.475Z,6.22
2019-03-17T01:48:01.976Z,6.21
2019-03-17T01:50:31.919Z,6.25
2019-03-17T01:53:01.765Z,6.24
2019-03-17T01:55:31.513Z,6.26
2019-03-17T01:58:01.247Z,6.27
2019-03-17T02:00:30.810Z,6.31
2019-03-17T02:03:00.439Z,6.36
2019-03-17T02:05:30.196Z,6.33
2019-03-17T02:07:59.928Z,6.32
2019-03-17T02:10:30.103Z,6.37
2019-03-17T02:13:00.125Z,6.39
2019-03-17T02:15:30.638Z,6.39
2019-03-17T02:18:00.662Z,6.44
2019-03-17T02:20:30.580Z,6.48
2019-03-17T02:23:00.465Z,6.53
2019-03-17T02:25:30.191Z,6.52
2019-03-17T02:27:59.996Z,6.52
2019-03-17T02:30:32.019Z,6.54
2019-03-17T02:33:01.797Z,6.58
2019-03-17T02:35:39.667Z,6.59
2019-03-17T02:38:03.929Z,6.56
2019-03-17T02:40:33.581Z,6.58
2019-03-17T02:43:03.357Z,6.61
2019-03-17T02:45:32.964Z,6.66
2019-03-17T02:48:03.094Z,6.68
2019-03-17T02:50:32.732Z,6.70
2019-03-17T02:53:02.337Z,6.74
2019-03-17T02:55:32.015Z,6.74
2019-03-17T02:58:02.343Z,6.76
2019-03-17T03:00:32.124Z,6.80
2019-03-17T03:03:02.686Z,6.85
2019-03-17T03:05:32.370Z,6.88
2019-03-17T03:08:02.090Z,6.89
2019-03-17T03:10:33.246Z,6.90
2019-03-17T03:13:03.426Z,6.91
2019-03-17T03:15:33.564Z,6.94
2019-03-17T03:18:03.351Z,6.93
2019-03-17T03:20:33.086Z,6.95
2019-03-17T03:23:03.214Z,6.99
2019-03-17T03:25:33.294Z,7.02
2019-03-17T03:28:05.162Z,7.05
2019-03-17T03:30:34.762Z,7.07
2019-03-17T03:33:04.414Z,7.10
2019-03-17T03:35:34.044Z,7.11
2019-03-17T03:38:03.670Z,7.14
2019-03-17T03:40:33.442Z,7.15
2019-03-17T03:43:03.095Z,7.17
2019-03-17T03:45:32.707Z,7.21
2019-03-17T03:48:02.631Z,7.26
2019-03-17T03:50:32.242Z,7.28
2019-03-17T03:53:01.845Z,7.30
2019-03-17T03:55:31.472Z,7.32
2019-03-17T03:58:01.718Z,7.36
2019-03-17T04:00:31.590Z,7.40
2019-03-17T04:03:01.907Z,7.42
2019-03-17T04:05:32.990Z,7.44
2019-03-17T04:08:03.012Z,7.46
2019-03-17T04:10:32.629Z,7.49
2019-03-17T04:13:03.370Z,7.51
2019-03-17T04:15:32.998Z,7.52
2019-03-17T04:18:03.243Z,7.54
2019-03-17T04:20:33.772Z,7.56
2019-03-17T04:23:03.375Z,7.56
2019-03-17T04:25:33.253Z,7.57
2019-03-17T04:28:03.319Z,7.55
2019-03-17T04:30:32.889Z,7.56
2019-03-17T04:33:02.495Z,7.57
2019-03-17T04:35:34.031Z,7.60
2019-03-17T04:38:03.647Z,7.62
2019-03-17T04:40:34.024Z,7.66
2019-03-17T04:43:05.274Z,7.70
2019-03-17T04:45:35.268Z,7.73
2019-03-17T04:48:05.144Z,7.75
2019-03-17T04:50:34.791Z,7.78
2019-03-17T04:53:05.374Z,7.81
2019-03-17T04:55:35.356Z,7.85
2019-03-17T04:58:05.437Z,7.88
2019-03-17T05:00:35.384Z,7.91
2019-03-17T05:03:05.001Z,7.94
2019-03-17T05:05:34.881Z,7.96
2019-03-17T05:08:04.781Z,7.98
2019-03-17T05:10:34.394Z,8.00
2019-03-17T05:13:04.631Z,8.14
2019-03-17T05:15:34.326Z,8.24
2019-03-17T05:18:03.936Z,8.27
2019-03-17T05:20:34.392Z,8.27
2019-03-17T05:23:05.875Z,8.26
2019-03-17T05:25:35.919Z,8.24
2019-03-17T05:28:05.579Z,8.22
2019-03-17T05:30:35.321Z,8.23
2019-03-17T05:33:05.018Z,8.25
2019-03-17T05:35:34.700Z,8.37
2019-03-17T05:38:04.754Z,8.44
2019-03-17T05:40:36.053Z,8.44
2019-03-17T05:43:05.692Z,8.43
2019-03-17T05:45:35.474Z,8.42
2019-03-17T05:48:05.240Z,8.43
2019-03-17T05:50:34.914Z,8.44
2019-03-17T05:53:04.544Z,8.43
2019-03-17T05:55:35.369Z,8.53
2019-03-17T05:58:05.841Z,8.61
2019-03-17T06:00:35.684Z,8.59
2019-03-17T06:03:05.354Z,8.59
2019-03-17T06:05:35.100Z,8.61
2019-03-17T06:08:04.711Z,8.59
2019-03-17T06:10:35.206Z,8.60
2019-03-17T06:13:05.413Z,8.58
2019-03-17T06:15:35.462Z,8.59
2019-03-17T06:18:05.084Z,8.65
2019-03-17T06:20:35.555Z,8.65
2019-03-17T06:23:06.307Z,8.66
2019-03-17T06:25:36.096Z,8.69
2019-03-17T06:28:06.138Z,8.76
2019-03-17T06:30:35.816Z,8.86
2019-03-17T06:33:05.818Z,8.91
2019-03-17T06:35:35.482Z,8.98
2019-03-17T06:38:05.940Z,9.01
2019-03-17T06:40:35.857Z,8.93
2019-03-17T06:43:06.367Z,8.91
2019-03-17T06:45:35.983Z,8.86
2019-03-17T06:48:05.727Z,8.84
2019-03-17T06:50:35.382Z,8.86
2019-03-17T06:53:05.099Z,8.86
2019-03-17T06:55:35.625Z,8.88
2019-03-17T06:58:06.343Z,8.97
2019-03-17T07:00:36.326Z,9.03
2019-03-17T07:03:06.245Z,9.00
2019-03-17T07:05:36.241Z,9.02
2019-03-17T07:08:05.844Z,9.00
2019-03-17T07:10:36.532Z,9.01
2019-03-17T07:13:06.203Z,9.02
2019-03-17T07:15:35.889Z,9.03
2019-03-17T07:18:05.504Z,9.08
2019-03-17T07:20:35.913Z,9.16
2019-03-17T07:23:05.738Z,9.27
2019-03-17T07:25:35.359Z,9.28
2019-03-17T07:28:05.015Z,9.31
2019-03-17T07:30:34.619Z,9.32
2019-03-17T07:33:04.492Z,9.33
2019-03-17T07:35:34.172Z,9.36
2019-03-17T07:38:03.772Z,9.44
2019-03-17T07:40:33.386Z,9.48
2019-03-17T07:43:03.613Z,9.54
2019-03-17T07:45:33.444Z,9.64
2019-03-17T07:48:05.357Z,9.74
2019-03-17T07:50:35.153Z,9.84
2019-03-17T07:53:04.905Z,9.90
2019-03-17T07:55:35.239Z,9.91
2019-03-17T07:58:05.639Z,9.97
2019-03-17T08:00:35.694Z,10.00
2019-03-17T08:03:05.318Z,10.05
2019-03-17T08:05:35.045Z,10.08
2019-03-17T08:08:09.639Z,10.08
2019-03-17T08:10:36.125Z,9.99
2019-03-17T08:13:05.784Z,9.92
2019-03-17T08:15:36.400Z,9.90
2019-03-17T08:18:05.993Z,9.85
2019-03-17T08:20:35.673Z,9.90
2019-03-17T08:23:06.168Z,10.00
2019-03-17T08:25:35.783Z,10.10
2019-03-17T08:28:05.489Z,10.22
2019-03-17T08:30:35.945Z,10.30
2019-03-17T08:33:05.636Z,10.36
2019-03-17T08:35:35.387Z,10.38
2019-03-17T08:38:05.077Z,10.37
2019-03-17T08:40:34.876Z,10.35
2019-03-17T08:43:04.534Z,10.39
2019-03-17T08:45:34.139Z,10.33
2019-03-17T08:48:03.963Z,10.30
2019-03-17T08:50:33.617Z,10.31
2019-03-17T08:53:03.253Z,10.35
2019-03-17T08:55:32.878Z,10.42
2019-03-17T08:58:02.952Z,10.49
2019-03-17T09:00:32.605Z,10.48
2019-03-17T09:03:03.969Z,10.44
2019-03-17T09:05:33.695Z,10.42
2019-03-17T09:08:03.311Z,10.51
2019-03-17T09:10:32.926Z,10.59
2019-03-17T09:13:07.889Z,10.62
2019-03-17T09:15:37.956Z,10.61
2019-03-17T09:18:08.423Z,10.60
2019-03-17T09:20:38.638Z,10.75
2019-03-17T09:23:08.328Z,10.90
2019-03-17T09:25:39.669Z,11.05
2019-03-17T09:28:09.354Z,11.15
2019-03-17T09:30:39.012Z,11.18
2019-03-17T09:33:08.761Z,11.23
2019-03-17T09:35:38.420Z,11.24
2019-03-17T09:38:08.612Z,11.32
2019-03-17T09:40:38.642Z,11.47
2019-03-17T09:43:08.373Z,11.61
2019-03-17T09:45:39.786Z,11.77
2019-03-17T09:48:09.478Z,11.87
2019-03-17T09:50:39.182Z,11.88
2019-03-17T09:53:08.831Z,11.98
2019-03-17T09:55:38.774Z,12.10
2019-03-17T09:58:08.983Z,12.27
2019-03-17T10:00:38.604Z,12.26
2019-03-17T10:03:08.351Z,12.22
2019-03-17T10:05:38.140Z,12.13
2019-03-17T10:08:08.253Z,12.17
2019-03-17T10:10:37.864Z,12.24
2019-03-17T10:13:07.677Z,12.26
2019-03-17T10:15:37.617Z,12.25
2019-03-17T10:18:07.722Z,12.27
2019-03-17T10:20:37.393Z,12.31
2019-03-17T10:23:07.551Z,12.25
2019-03-17T10:25:37.556Z,12.18
2019-03-17T10:28:08.616Z,12.24
2019-03-17T10:30:38.347Z,12.26
2019-03-17T10:33:07.966Z,12.29
2019-03-17T10:35:37.614Z,12.28
2019-03-17T10:38:07.385Z,12.37
2019-03-17T10:40:37.353Z,12.50
2019-03-17T10:43:07.390Z,12.56
2019-03-17T10:45:37.040Z,12.68
2019-03-17T10:48:06.717Z,12.71
2019-03-17T10:50:48.762Z,12.82
2019-03-17T10:53:07.747Z,13.00
2019-03-17T10:55:37.656Z,13.08
2019-03-17T10:58:07.671Z,13.24
2019-03-17T11:00:37.560Z,13.36
2019-03-17T11:03:07.661Z,13.54
2019-03-17T11:05:38.010Z,13.64
2019-03-17T11:08:07.988Z,13.89
2019-03-17T11:10:37.609Z,14.14
2019-03-17T11:13:07.275Z,14.00
2019-03-17T11:15:36.888Z,13.93
2019-03-17T11:18:06.843Z,13.89
2019-03-17T11:20:36.987Z,13.96
2019-03-17T11:23:07.090Z,14.17
2019-03-17T11:25:36.708Z,13.98
2019-03-17T11:28:06.788Z,13.74
2019-03-17T11:30:36.468Z,13.49
2019-03-17T11:33:06.108Z,13.45
2019-03-17T11:35:35.918Z,13.54
2019-03-17T11:38:05.530Z,13.68
2019-03-17T11:40:35.253Z,13.83
2019-03-17T11:43:04.908Z,14.05
2019-03-17T11:45:34.520Z,14.34
2019-03-17T11:48:04.416Z,14.52
2019-03-17T11:50:34.787Z,14.65
2019-03-17T11:53:04.539Z,14.50
2019-03-17T11:55:35.114Z,14.38
2019-03-17T11:58:04.791Z,14.40
2019-03-17T12:00:34.449Z,14.74
2019-03-17T12:03:04.051Z,15.12
2019-03-17T12:05:33.735Z,15.29
2019-03-17T12:08:10.639Z,15.47
2019-03-17T12:10:40.173Z,15.42
2019-03-17T12:13:11.020Z,15.00
2019-03-17T12:15:40.641Z,14.88
2019-03-17T12:18:10.368Z,14.89
2019-03-17T12:20:40.642Z,15.08
2019-03-17T12:23:10.323Z,15.40
2019-03-17T12:25:39.999Z,15.85
2019-03-17T12:28:09.682Z,16.10
2019-03-17T12:30:39.931Z,16.03
2019-03-17T12:33:09.583Z,15.94
2019-03-17T12:35:39.799Z,15.59
2019-03-17T12:38:09.600Z,15.58
2019-03-17T12:40:39.255Z,15.64
2019-03-17T12:43:08.888Z,15.81
2019-03-17T12:45:38.530Z,16.31
2019-03-17T12:48:08.206Z,16.58
2019-03-17T12:50:37.842Z,16.55
2019-03-17T12:53:09.233Z,16.62
2019-03-17T12:55:39.352Z,16.30
2019-03-17T12:58:08.977Z,15.71
2019-03-17T13:00:40.971Z,15.21
2019-03-17T13:03:12.761Z,15.01
2019-03-17T13:05:42.440Z,14.79
2019-03-17T13:08:12.058Z,14.47
2019-03-17T13:10:41.884Z,14.22
2019-03-17T13:13:11.778Z,14.04
2019-03-17T13:15:41.400Z,13.92
2019-03-17T13:18:11.080Z,13.85
2019-03-17T13:20:40.771Z,13.78
2019-03-17T13:23:10.584Z,13.68
2019-03-17T13:25:40.341Z,13.58
2019-03-17T13:28:13.050Z,13.51
2019-03-17T13:30:42.662Z,13.45
2019-03-17T13:33:12.405Z,13.40
2019-03-17T13:35:42.847Z,13.36
2019-03-17T13:38:12.462Z,13.40
2019-03-17T13:40:43.194Z,13.42
2019-03-17T13:43:13.290Z,13.36
2019-03-17T13:45:44.467Z,13.36
2019-03-17T13:48:14.210Z,13.36
2019-03-17T13:50:44.155Z,13.30
2019-03-17T13:53:13.774Z,13.24
2019-03-17T13:55:43.468Z,13.16
2019-03-17T13:58:13.687Z,13.16
2019-03-17T14:00:43.354Z,13.15
2019-03-17T14:03:13.080Z,13.09
2019-03-17T14:05:42.743Z,13.01
2019-03-17T14:08:12.637Z,12.99
2019-03-17T14:10:42.292Z,12.96
2019-03-17T14:13:12.897Z,12.93
2019-03-17T14:15:43.368Z,12.80
2019-03-17T14:18:13.503Z,12.66
2019-03-17T14:20:43.956Z,12.54
2019-03-17T14:23:13.909Z,12.47
2019-03-17T14:25:43.554Z,12.41
2019-03-17T14:28:13.155Z,12.39
2019-03-17T14:30:42.782Z,12.37
2019-03-17T14:33:12.439Z,12.34
2019-03-17T14:35:42.192Z,12.31
2019-03-17T14:38:13.969Z,12.25
2019-03-17T14:40:53.299Z,12.20
2019-03-17T14:43:15.860Z,12.18
2019-03-17T14:45:46.573Z,12.25
2019-03-17T14:48:16.220Z,12.24
2019-03-17T14:50:46.857Z,12.17
2019-03-17T14:53:16.574Z,12.14
2019-03-17T14:55:48.177Z,12.12
2019-03-17T14:58:20.087Z,12.13
2019-03-17T15:00:50.007Z,12.17
2019-03-17T15:03:19.691Z,12.24
2019-03-17T15:05:49.307Z,12.25
2019-03-17T15:08:18.929Z,12.22
2019-03-17T15:10:49.058Z,12.13
2019-03-17T15:13:18.700Z,12.03
2019-03-17T15:15:48.341Z,11.92
2019-03-17T15:18:18.080Z,11.84
2019-03-17T15:20:48.543Z,11.79
2019-03-17T15:23:18.164Z,11.73
2019-03-17T15:25:49.982Z,11.66
2019-03-17T15:28:20.743Z,11.67
2019-03-17T15:31:05.577Z,11.72
2019-03-17T15:33:24.611Z,11.70
2019-03-17T15:35:54.675Z,11.61
2019-03-17T15:38:24.300Z,11.57
2019-03-17T15:40:54.996Z,11.54
2019-03-17T15:43:24.946Z,11.49
2019-03-17T15:45:54.598Z,11.42
2019-03-17T15:48:27.733Z,11.42
2019-03-17T15:50:58.401Z,11.40
2019-03-17T15:53:31.767Z,11.40
2019-03-17T15:56:01.658Z,11.40
2019-03-17T15:58:34.549Z,11.40
2019-03-17T16:01:04.590Z,11.35
2019-03-17T16:03:34.372Z,11.28
2019-03-17T16:06:04.346Z,11.09
2019-03-17T16:08:34.051Z,10.85
2019-03-17T16:11:03.979Z,10.57
2019-03-17T16:13:33.595Z,10.26
2019-03-17T16:16:03.342Z,9.73
2019-03-17T16:18:32.997Z,9.33
2019-03-17T16:21:03.189Z,9.03
2019-03-17T16:23:32.907Z,8.94
2019-03-17T16:26:02.553Z,9.00
2019-03-17T16:28:34.489Z,8.92
2019-03-17T16:31:06.741Z,8.87
2019-03-17T16:33:36.367Z,8.80
2019-03-17T16:36:06.870Z,8.69
2019-03-17T16:38:38.108Z,8.47
2019-03-17T16:41:08.452Z,8.28
2019-03-17T16:43:38.846Z,8.13
2019-03-17T16:46:09.577Z,8.04
2019-03-17T16:48:39.744Z,7.98
2019-03-17T16:51:09.466Z,7.93
2019-03-17T16:53:40.969Z,7.86
2019-03-17T16:56:12.024Z,7.82
2019-03-17T16:58:41.649Z,7.80
2019-03-17T17:01:11.442Z,7.79
2019-03-17T17:03:41.114Z,7.80
2019-03-17T17:06:10.852Z,7.80
2019-03-17T17:08:42.672Z,7.75
2019-03-17T17:11:12.511Z,7.70
2019-03-17T17:13:42.262Z,7.69
2019-03-17T17:16:12.710Z,7.65
2019-03-17T17:18:42.692Z,7.63
2019-03-17T17:21:14.127Z,7.59
2019-03-17T17:23:44.200Z,7.53
2019-03-17T17:26:14.158Z,7.50
2019-03-17T17:28:43.894Z,7.45
2019-03-17T17:31:13.531Z,7.39
2019-03-17T17:33:43.222Z,7.37
2019-03-17T17:36:14.217Z,7.37
2019-03-17T17:38:44.151Z,7.35
2019-03-17T17:41:13.726Z,7.31
2019-03-17T17:43:43.700Z,7.37
2019-03-17T17:46:13.365Z,7.39
2019-03-17T17:48:43.065Z,7.32
2019-03-17T17:51:13.290Z,7.27
2019-03-17T17:53:42.929Z,7.24
2019-03-17T17:56:12.712Z,7.24
2019-03-17T17:58:42.331Z,7.22
2019-03-17T18:01:12.864Z,7.19
2019-03-17T18:03:51.617Z,7.13
2019-03-17T18:06:14.021Z,7.09
2019-03-17T18:08:45.989Z,7.05
2019-03-17T18:11:15.700Z,7.05
2019-03-17T18:13:54.697Z,7.04
2019-03-17T18:16:26.070Z,7.06
2019-03-17T18:18:55.545Z,7.07
2019-03-17T18:21:25.654Z,7.11
2019-03-17T18:23:58.371Z,7.06
2019-03-17T18:26:28.088Z,7.03
2019-03-17T18:29:01.783Z,6.99
2019-03-17T18:31:31.551Z,6.94
2019-03-17T18:34:02.556Z,6.94
2019-03-17T18:36:32.204Z,6.93
2019-03-17T18:39:01.868Z,6.90
2019-03-17T18:41:31.481Z,6.89
2019-03-17T18:44:01.095Z,6.89
2019-03-17T18:46:31.100Z,6.86
2019-03-17T18:49:01.389Z,6.86
2019-03-17T18:51:31.006Z,6.87
2019-03-17T18:54:01.202Z,6.87
2019-03-17T18:56:31.021Z,6.85
2019-03-17T18:59:00.582Z,6.85
2019-03-17T19:01:31.214Z,6.86
2019-03-17T19:04:01.170Z,6.86
2019-03-17T19:06:30.774Z,6.87
2019-03-17T19:09:00.437Z,6.87
2019-03-17T19:11:31.675Z,6.85
2019-03-17T19:14:02.961Z,6.83
2019-03-17T19:16:32.660Z,6.81
2019-03-17T19:19:02.271Z,6.79
2019-03-17T19:21:32.346Z,6.77
2019-03-17T19:24:02.880Z,6.77
2019-03-17T19:26:35.454Z,6.79
2019-03-17T19:29:05.087Z,6.79
2019-03-17T19:31:34.777Z,6.79
2019-03-17T19:34:08.226Z,6.79
2019-03-17T19:36:38.899Z,6.78
2019-03-17T19:39:08.779Z,6.75
2019-03-17T19:41:39.454Z,6.72
2019-03-17T19:44:09.038Z,6.70
2019-03-17T19:46:38.806Z,6.67
2019-03-17T19:49:08.915Z,6.74
2019-03-17T19:51:39.797Z,6.77
2019-03-17T19:54:09.562Z,6.73
2019-03-17T19:56:39.204Z,6.70
2019-03-17T19:59:08.997Z,6.70
2019-03-17T20:01:38.699Z,6.69
2019-03-17T20:04:08.402Z,6.68
2019-03-17T20:06:38.248Z,6.67
2019-03-17T20:09:07.984Z,6.66
2019-03-17T20:11:38.411Z,6.63
2019-03-17T20:14:08.036Z,6.58
2019-03-17T20:16:37.753Z,6.56
2019-03-17T20:19:07.632Z,6.56
2019-03-17T20:21:37.241Z,6.54
2019-03-17T20:24:07.318Z,6.52
2019-03-17T20:26:36.965Z,6.49
2019-03-17T20:29:06.593Z,6.47
2019-03-17T20:31:36.295Z,6.48
2019-03-17T20:34:06.760Z,6.46
2019-03-17T20:36:36.395Z,6.48
2019-03-17T20:39:07.154Z,6.61
2019-03-17T20:41:36.799Z,6.65
2019-03-17T20:44:06.571Z,6.64
2019-03-17T20:46:36.245Z,6.64
2019-03-17T20:49:06.444Z,6.63
2019-03-17T20:51:36.377Z,6.65
2019-03-17T20:54:08.315Z,6.63
2019-03-17T20:56:37.942Z,6.61
2019-03-17T20:59:07.831Z,6.59
2019-03-17T21:01:37.487Z,6.57
2019-03-17T21:04:08.454Z,6.57
2019-03-17T21:06:38.089Z,6.57
2019-03-17T21:09:08.366Z,6.57
2019-03-17T21:11:38.644Z,6.59
2019-03-17T21:14:08.534Z,6.62
2019-03-17T21:16:38.971Z,6.62
2019-03-17T21:19:09.463Z,6.65
2019-03-17T21:21:39.085Z,6.66
2019-03-17T21:24:08.791Z,6.66
2019-03-17T21:26:41.326Z,6.65
2019-03-17T21:29:11.048Z,6.66
2019-03-17T21:31:41.018Z,6.66
2019-03-17T21:34:11.212Z,6.74
2019-03-17T21:36:41.807Z,6.76
2019-03-17T21:39:11.504Z,6.73
2019-03-17T21:41:41.113Z,6.72
2019-03-17T21:44:10.724Z,6.72
2019-03-17T21:46:41.306Z,6.72
2019-03-17T21:49:12.561Z,6.70
2019-03-17T21:51:42.127Z,6.70
2019-03-17T21:54:11.808Z,6.71
2019-03-17T21:56:41.801Z,6.71
2019-03-17T21:59:12.679Z,6.71
2019-03-17T22:01:42.393Z,6.70
2019-03-17T22:04:13.045Z,6.70
2019-03-17T22:06:45.079Z,6.70
2019-03-17T22:09:17.300Z,6.66
2019-03-17T22:11:46.846Z,6.63
2019-03-17T22:14:16.460Z,6.64
2019-03-17T22:16:46.490Z,6.60
2019-03-17T22:19:16.114Z,6.64
2019-03-17T22:21:47.307Z,6.68
2019-03-17T22:24:17.075Z,6.67
2019-03-17T22:26:46.779Z,6.68
2019-03-17T22:29:16.399Z,6.70
2019-03-17T22:31:46.068Z,6.67
2019-03-17T22:34:16.675Z,6.61
2019-03-17T22:36:49.248Z,6.53
2019-03-17T22:39:18.984Z,6.47
2019-03-17T22:41:48.596Z,6.43
2019-03-17T22:44:24.142Z,6.42
2019-03-17T22:46:50.361Z,6.43
2019-03-17T22:49:19.967Z,6.42
2019-03-17T22:51:49.710Z,6.40
2019-03-17T22:54:20.892Z,6.37
2019-03-17T22:56:53.609Z,6.34
2019-03-17T22:59:24.000Z,6.29
2019-03-17T23:01:53.898Z,6.24
2019-03-17T23:04:23.603Z,6.20
2019-03-17T23:06:55.254Z,6.18
2019-03-17T23:09:26.581Z,6.16
2019-03-17T23:11:56.283Z,6.14
2019-03-17T23:14:36.150Z,6.14
2019-03-17T23:16:57.969Z,6.14
2019-03-17T23:19:27.590Z,6.12
2019-03-17T23:21:57.202Z,6.09
2019-03-17T23:24:26.887Z,6.08
2019-03-17T23:26:56.590Z,6.09
2019-03-17T23:29:26.573Z,6.08
2019-03-17T23:31:57.120Z,6.06
2019-03-17T23:34:26.739Z,6.06
2019-03-17T23:36:56.348Z,6.03
2019-03-17T23:39:26.086Z,5.98
2019-03-17T23:41:56.066Z,5.97
2019-03-17T23:44:25.866Z,5.94
2019-03-17T23:46:55.552Z,5.95
2019-03-17T23:49:25.215Z,5.96
2019-03-17T23:51:54.828Z,5.97
2019-03-17T23:54:24.968Z,5.98
2019-03-17T23:56:54.580Z,6.02
2019-03-17T23:59:24.192Z,6.04
